Allport, Pennsylvania
Current Conditions -  °F | °C
As of 4:54 PM on Saturday 25 Oct 2014 (Local Time) from KFIG Reporting Station
Broken Clouds Broken Clouds  
Wind Chill: 17°   Ceiling: 4500
Heat Index: 17°   Visibility: 10mi
Dew Point:   Wind: 17mph
Humidity: 58%   Direction: 240°WSW
Pressure: 29.71"   Gusts: 28mph
Location:  40.96°N, 78.2°W
Report Text: KFIG 252054Z AUTO 24015G24KT 10SM BKN045 17/09 A2971 RMK AO2 SLP061 T01720089 56025
Loading
Personal Weather Stations






























Interactive Weather Map
Tropical Storm Tracking
New forecast layout! Learn more

10-Day Weather Forecast

Advertisements
Track Severe Weather on mobile